METAR Principali Aeroporti Italiani

 

LIPF - Ferrara, It
Distance from station: 8 km
Updated: Mon, 24-Sep-2018 7:55pm CEST
NOT Current
Clear
Clear
 Wind from varies
Wind: varies 0 mph , 0 km/h
Temperature: 66°F , 19°C
Dew Point: 52°F , 11°C
Humidity: 60%
Barometer: 30.21 inHg , 1023 hPa
Summary: Clear
Visibility: greater than 7 miles , 10 km
2018/09/24 17:55 LIPF 241755Z /////KT CAVOK 19/11 Q1023
LIPE - Bologna Borgo Panigale, It
Distance from station: 46 km
Updated: Mon, 24-Sep-2018 10:50pm CEST
Clear
Clear
 Wind from E
Wind: E 7 mph , 11 km/h
Temperature: 61°F , 16°C
Dew Point: 48°F , 9°C
Humidity: 63%
Barometer: 30.3 inHg , 1026 hPa
Summary: Clear
Visibility: greater than 7 miles , 10 km
2018/09/24 20:50 LIPE 242050Z 10006KT CAVOK 16/09 Q1026
LIMF - Torino Caselle, It
Distance from station: 320 km
Updated: Mon, 24-Sep-2018 10:50pm CEST
Mostly Cloudy
Mostly Cloudy
 Wind from NNE
Wind: NNE 7 mph , 11 km/h
Temperature: 66°F , 19°C
Dew Point: 50°F , 10°C
Humidity: 56%
Barometer: 30.33 inHg , 1027 hPa
Clouds: Mostly Cloudy
Visibility: 6 miles , 10 km
Cloud details: Mostly Cloudy 5000 ft
2018/09/24 20:50 LIMF 242050Z 02006KT 9999 BKN050 19/10 Q1027
 
LIML - Milano Malpensa, It
Distance from station: 249 km
Updated: Mon, 24-Sep-2018 10:50pm CEST
Mostly Cloudy
Mostly Cloudy
 Wind from E
Wind: E 7 mph , 11 km/h
Temperature: 66°F , 19°C
Dew Point: 52°F , 11°C
Humidity: 60%
Barometer: 30.3 inHg , 1026 hPa
Clouds: Mostly Cloudy
Visibility: 6 miles , 10 km
Cloud details: Mostly Cloudy 5000 ft
2018/09/24 20:50 LIML 242050Z 08006KT 050V110 9999 BKN050 19/11 Q1026 NOSIG
LIME - Bergamo Orio al Serio, It
Distance from station: 181 km
Updated: Mon, 24-Sep-2018 10:50pm CEST
Partly Cloudy
Partly Cloudy
 Wind from SE
Wind: SE 9 mph , 15 km/h
Temperature: 64°F , 18°C
Dew Point: 48°F , 9°C
Humidity: 56%
Barometer: 30.33 inHg , 1027 hPa
Clouds: Partly Cloudy
Visibility: 6 miles , 10 km
Cloud details: Few Clouds 3500 ft
Partly Cloudy 5000 ft
2018/09/24 20:50 LIME 242050Z 14008KT 9999 FEW035 SCT050 18/09 Q1027 NOSIG
LIPZ - Venezia Tessera, It
Distance from station: 93 km
Updated: Mon, 24-Sep-2018 10:50pm CEST
Partly Cloudy
Partly Cloudy
 Wind from E
Wind: E 14 mph , 22 km/h
Temperature: 64°F , 18°C
Dew Point: 45°F , 7°C
Humidity: 49%
Barometer: 30.36 inHg , 1028 hPa
Clouds: Partly Cloudy
Visibility: 6 miles , 10 km
Cloud details: Partly Cloudy 7000 ft
2018/09/24 20:50 LIPZ 242050Z 09012KT 9999 SCT070 18/07 Q1028 NOSIG
 
LIVT - Trieste, It
Distance from station: 179 km
Updated: Thu, 20-Sep-2018 3:55pm CEST
NOT Current

 Wind from NE
Wind: NE 5 mph , 7 km/h
Temperature: 88°F , 31°C
Dew Point: 59°F , 15°C
Humidity: 38%
Barometer: 30 inHg , 1016 hPa
Visibility: 6 miles , 10 km
2018/09/20 13:55 LIVT 201355Z 04004KT 9999 31/15 Q1016 RMK FEW QUK 2 QUL 0 VIS MAR 20 KM VIS MIN 9999
LIMJ - Genova, It
Distance from station: 229 km
Updated: Mon, 24-Sep-2018 10:50pm CEST
Clear
Clear
 Wind from ENE
Wind: ENE 8 mph , 13 km/h
Temperature: 73°F , 23°C
Dew Point: 50°F , 10°C
Humidity: 44%
Barometer: 30.18 inHg , 1022 hPa
Summary: Clear
Visibility: greater than 7 miles , 10 km
2018/09/24 20:50 LIMJ 242050Z 06007KT 020V100 CAVOK 23/10 Q1022
LIRQ - Firenze Amerigo Vespucci, It
Distance from station: 119 km
Updated: Mon, 24-Sep-2018 10:50pm CEST
Clear
Clear
 Wind from NE
Wind: NE 10 mph , 17 km/h
Temperature: 68°F , 20°C
Dew Point: 48°F , 9°C
Humidity: 49%
Barometer: 30.21 inHg , 1023 hPa
Summary: Clear
Visibility: greater than 7 miles , 10 km
2018/09/24 20:50 LIRQ 242050Z 04009KT 330V090 CAVOK 20/09 Q1023
 
LIPY - Ancona, It
Distance from station: 189 km
Updated: Mon, 24-Sep-2018 9:50pm CEST
Clear
Clear
 Wind from S
Wind: S 3 mph , 6 km/h
Temperature: 61°F , 16°C
Dew Point: 55°F , 13°C
Humidity: 83%
Barometer: 30.27 inHg , 1025 hPa
Summary: Clear
Visibility: greater than 7 miles , 10 km
2018/09/24 19:50 LIPY 241950Z 18003KT CAVOK 16/13 Q1025
LIBP - Pescara, It
Distance from station: 333 km
Updated: Mon, 24-Sep-2018 9:50pm CEST
Mostly Cloudy
Mostly Cloudy
 Wind from SSW
Wind: SSW 7 mph , 11 km/h
Temperature: 61°F , 16°C
Dew Point: 57°F , 14°C
Humidity: 88%
Barometer: 30.3 inHg , 1026 hPa
Clouds: Mostly Cloudy
Visibility: 6 miles , 10 km
Cloud details: Partly Cloudy 2000 ft
Mostly Cloudy 8500 ft
2018/09/24 19:50 LIBP 241950Z 21006KT 9999 SCT020 BKN085 16/14 Q1026
LIRF - Roma-Fiumicino, It
Distance from station: km
Updated: Mon, 24-Sep-2018 10:50pm CEST
Partly Cloudy
Partly Cloudy
 Wind from NE
Wind: NE 15 mph , 24 km/h
Temperature: 73°F , 23°C
Dew Point: 55°F , 13°C
Humidity: 53%
Barometer: 30.06 inHg , 1018 hPa
Clouds: Partly Cloudy
Visibility: 6 miles , 10 km
Cloud details: Partly Cloudy 5000 ft
2018/09/24 20:50 LIRF 242050Z 04013KT 9999 SCT050 23/13 Q1018 NOSIG
 
LIRN - Napoli Capodichino, It
Distance from station: km
Updated: Mon, 24-Sep-2018 10:50pm CEST
Partly Cloudy
Partly Cloudy
 Wind from ENE
Wind: ENE 14 mph , 22 km/h, Gust: 28 mph , 44 km/h
Temperature: 70°F , 21°C
Dew Point: 54°F , 12°C
Humidity: 57%
Barometer: 30.09 inHg , 1019 hPa
Clouds: Partly Cloudy
Visibility: 6 miles , 10 km
Cloud details: Few Clouds 4000 ft
Partly Cloudy 6000 ft
2018/09/24 20:50 LIRN 242050Z 07012G24KT 9999 FEW040 SCT060 21/12 Q1019 NOSIG
LIBD - Bari Palese, It
Distance from station: km
Updated: Mon, 24-Sep-2018 10:50pm CEST
Light drizzle, Partly cloudy
Light drizzle, Partly cloudy
 Wind from N
Wind: N 16 mph , 26 km/h, Gust: 30 mph , 48 km/h
Temperature: 66°F , 19°C
Dew Point: 57°F , 14°C
Humidity: 73%
Barometer: 30.15 inHg , 1021 hPa
Summary: Light Drizzle
Clouds: Partly Cloudy
Visibility: 6 miles , 10 km
Cloud details: Partly Cloudy 3000 ft
2018/09/24 20:50 LIBD 242050Z 35014G26KT 9999 -DZ SCT030 19/14 Q1021
LIBG - Taranto Grottaglie, It
Distance from station: km
Updated: Mon, 24-Sep-2018 7:50pm CEST
NOT Current
Clear
Clear
 Wind from NE
Wind: NE 5 mph , 7 km/h
Temperature: 77°F , 25°C
Dew Point: 64°F , 18°C
Humidity: 65%
Barometer: 29.94 inHg , 1014 hPa
Summary: Clear
Visibility: greater than 7 miles , 10 km
2018/09/24 17:50 LIBG 241750Z 04004KT 360V070 CAVOK 25/18 Q1014
 
LICR - Reggio Calabria, It
Distance from station: km
Updated: Mon, 24-Sep-2018 9:50pm CEST
Clear
Clear
 Wind from N
Wind: N 7 mph , 11 km/h
Temperature: 77°F , 25°C
Dew Point: 66°F , 19°C
Humidity: 69%
Barometer: 30 inHg , 1016 hPa
Summary: Clear
Visibility: greater than 7 miles , 10 km
2018/09/24 19:50 LICR 241950Z 01006KT CAVOK 25/19 Q1016
LICJ - Palermo Punta Raisi, It
Distance from station: km
Updated: Mon, 24-Sep-2018 10:50pm CEST
Clear
Clear
 Wind from varies
Wind: varies 2 mph , 4 km/h
Temperature: 73°F , 23°C
Dew Point: 68°F , 20°C
Humidity: 83%
Barometer: 30.03 inHg , 1017 hPa
Summary: Clear
Visibility: greater than 7 miles , 10 km
2018/09/24 20:50 LICJ 242050Z VRB02KT CAVOK 23/20 Q1017
LICC - Catania Fontanarossa, It
Distance from station: km
Updated: Mon, 24-Sep-2018 10:50pm CEST
Mostly Cloudy
Mostly Cloudy
 Wind from ENE
Wind: ENE 9 mph , 15 km/h
Temperature: 81°F , 27°C
Heat Index: 84°F , 29°C
Dew Point: 68°F , 20°C
Humidity: 66%
Barometer: 30 inHg , 1016 hPa
Clouds: Mostly Cloudy
Visibility: 6 miles , 10 km
Cloud details: Mostly Cloudy 5000 ft
2018/09/24 20:50 LICC 242050Z 06008KT 9999 BKN050 27/20 Q1016
 
LIEE - Cagliari Elmas, It
Distance from station: km
Updated: Mon, 24-Sep-2018 10:50pm CEST
Clear
Clear
 Wind from NNW
Wind: NNW 12 mph , 19 km/h
Temperature: 68°F , 20°C
Dew Point: 57°F , 14°C
Humidity: 69%
Barometer: 30.06 inHg , 1018 hPa
Summary: Clear
Visibility: greater than 7 miles , 10 km
2018/09/24 20:50 LIEE 242050Z 33010KT CAVOK 20/14 Q1018
LIEO - Olbia, It
Distance from station: km
Updated: Mon, 24-Sep-2018 10:50pm CEST
Partly Cloudy
Partly Cloudy
 Wind from WSW
Wind: WSW 13 mph , 20 km/h
Temperature: 72°F , 22°C
Dew Point: 55°F , 13°C
Humidity: 57%
Barometer: 30.06 inHg , 1018 hPa
Clouds: Partly Cloudy
Visibility: 6 miles , 10 km
Cloud details: Partly Cloudy 2500 ft
2018/09/24 20:50 LIEO 242050Z 25011KT 9999 SCT025 22/13 Q1018
LICG - Pantelleria, It
Distance from station: km
Updated: Mon, 24-Sep-2018 7:55pm CEST
NOT Current
Partly Cloudy
Partly Cloudy
 Wind from varies
Wind: varies 0 mph , 0 km/h
Temperature: 75°F , 24°C
Dew Point: 72°F , 22°C
Humidity: 89%
Barometer: 30.03 inHg , 1017 hPa
Clouds: Partly Cloudy
Visibility: 6 miles , 10 km
Cloud details: Few Clouds 500 ft
Partly Cloudy 1500 ft
2018/09/24 17:55 LICG 241755Z /////KT 9999 FEW005 SCT015 24/22 Q1017

Metar display script from Saratoga-Weather.org